To NAV CANADA Home Page Login to a new session Search on AWWS site Feedback and Comments Disclaimer Vers la page française équivalente Tips FAQ What's new on the site To the Forecasts and Observations / NOTAM section To "File a Flight Plan" website Publications and other links Update of the User's profile FIC Telephone Numbers My Weather Data Folder Route Weather Data Regional Weather Data Local Weather Data To the Forecasts and Observations / NOTAM section
Request Generated 01/21/2017 at 02:06:09 UTC . Weather information available at that time is displayed.

METAR/TAF

THOMPSON/MB    

METAR CYTH 210200Z 11004KT 060V150 5SM -SN BR OVC006 M03/M04 A2954
RMK ST8 SLP021=
METAR CYTH 210100Z 11006KT 060V160 5SM -SN BR OVC005 M02/M03 A2955
RMK ST8 SLP024=
METAR CYTH 210000Z 10005KT 060V160 5SM -SN BR OVC004 M02/M03 A2955
RMK SC8 SLP022=

TAF CYTH 210038Z 2101/2113 11005KT 2SM -SN BR OVC003 TEMPO 2101/2113
P6SM NSW OVC006
RMK NXT FCST BY 210700Z=
Your time UTC time
Weather data provided by Environment Canada and NAV CANADA